Glen Rover — CFN6090 — position and weather

sailwx.info

Track history (hours):
 
Tides and Currents Weather Stations Pressure Air Temp Water Temp Dewpoint Dewpoint Depression Visibility Wind Speed Wind Dir Waves Ship Positions

Glen Rover

Last reported at 2017-Dec-11 16:57 UTC. Time now 2017-Dec-12 12:33 UTC.
Position N 50°05' W 125°18'.

Type: Tug. MMSI: 316016916.

Date/timePositionNaut miles runAvg speedWind from/ knotsBaromVisibWave heightAir tempDewpointWater temp
2017-Dec-11 16:57N 50°05' W 125°18'0 0.0
2017-Dec-11 16:27N 50°05' W 125°18'0 0.1
2017-Dec-11 15:58N 50°05' W 125°18'0 0.0
2017-Dec-11 15:28N 50°05' W 125°18'0 0.0
2017-Dec-11 14:58N 50°05' W 125°18'0 0.0
2017-Dec-11 14:28N 50°05' W 125°18'0 0.0
2017-Dec-11 13:58N 50°05' W 125°18'0 0.0
2017-Dec-11 13:28N 50°05' W 125°18'0 0.0
2017-Dec-11 12:58N 50°05' W 125°18'0 0.0
2017-Dec-11 12:28N 50°05' W 125°18'0 0.0
2017-Dec-11 11:58N 50°05' W 125°18'0 0.0
2017-Dec-11 11:28N 50°05' W 125°18'0 0.0
2017-Dec-11 10:58N 50°05' W 125°18'0 0.0
2017-Dec-11 10:28N 50°05' W 125°18'0 0.0
2017-Dec-11 09:58N 50°05' W 125°18'0 0.0
2017-Dec-11 09:28N 50°05' W 125°18'0 0.0
2017-Dec-11 08:58N 50°05' W 125°18'0 0.0
2017-Dec-11 08:28N 50°05' W 125°18'0 0.0
2017-Dec-11 07:58N 50°05' W 125°18'0 0.0
2017-Dec-11 07:29N 50°05' W 125°18'0 0.8
2017-Dec-11 07:01N 50°05' W 125°18'2 5.0
2017-Dec-11 06:30N 50°03' W 125°15'2 4.4
2017-Dec-11 06:00N 50°01' W 125°13'2 4.3
2017-Dec-11 05:30N 49°59' W 125°12'4 6.8
2017-Dec-11 04:54N 49°57' W 125°07'3 7.3
2017-Dec-11 04:30N 49°55' W 125°03'4 7.5
2017-Dec-11 04:00N 49°53' W 124°59'4 7.3
2017-Dec-11 03:30N 49°51' W 124°54'4 7.0
2017-Dec-11 02:57N 49°51' W 124°48'3 7.3
2017-Dec-11 02:29N 49°50' W 124°43'4 7.3
2017-Dec-11 02:00N 49°49' W 124°37'6 7.3
2017-Dec-11 01:12N 49°47' W 124°29'2 7.1
2017-Dec-11 00:56N 49°46' W 124°27'  
2017-Dec-08 13:54N 49°47' W 124°52'3 7.1
2017-Dec-08 13:30N 49°49' W 124°55'4 6.8
2017-Dec-08 12:57N 49°51' W 124°59'4 7.1
2017-Dec-08 12:21N 49°54' W 125°04'4 7.4
2017-Dec-08 11:48N 49°57' W 125°09'6 9.8
2017-Dec-08 11:09N 50°02' W 125°14'3 9.8
2017-Dec-08 10:50N 50°05' W 125°16'3 7.6
2017-Dec-08 10:30N 50°07' W 125°19'3 6.6
2017-Dec-08 10:00N 50°10' W 125°21'  
2017-Dec-04 01:10N 50°51' W 127°21'1 7.3
2017-Dec-04 00:59N 50°52' W 127°22'3 6.5
2017-Dec-04 00:30N 50°55' W 127°25'3 5.8
2017-Dec-04 00:00N 50°57' W 127°28'3 6.6
2017-Dec-03 23:30N 50°59' W 127°32'3 6.1
2017-Dec-03 23:00N 51°02' W 127°32'4 7.7
2017-Dec-03 22:28N 51°06' W 127°31'1 2.2
2017-Dec-03 21:59N 51°06' W 127°29'3 6.1
2017-Dec-03 21:28N 51°04' W 127°25'16 0.8
2017-Dec-03 00:52N 51°04' W 126°59'3 7.9
2017-Dec-03 00:28N 51°03' W 127°04'4 7.6
2017-Dec-02 23:55N 51°03' W 127°11'3 7.3
2017-Dec-02 23:30N 51°03' W 127°16'3 6.6
2017-Dec-02 23:00N 51°02' W 127°21'3 6.6
2017-Dec-02 22:30N 51°04' W 127°25'4 7.1
2017-Dec-02 22:00N 51°06' W 127°30'4 7.5
2017-Dec-02 21:28N 51°02' W 127°31'3 6.1
2017-Dec-02 20:59N 51°01' W 127°36'4 7.1
2017-Dec-02 20:24N 51°04' W 127°40'4 7.0
2017-Dec-02 19:51N 51°06' W 127°45'2 6.7
2017-Dec-02 19:29N 51°08' W 127°48'7 0.3
2017-Dec-01 22:36N 51°03' W 127°39'110.8
2017-Dec-01 22:29N 51°02' W 127°38'510.9
2017-Dec-01 22:00N 50°58' W 127°32'611.4
2017-Dec-01 21:30N 50°55' W 127°25'510.8
2017-Dec-01 21:00N 50°52' W 127°18'  
Track history (hours):
 
Tides and Currents Weather Stations Pressure Air Temp Water Temp Dewpoint Dewpoint Depression Visibility Wind Speed Wind Dir Waves Ship Positions

Glen Rover

Last reported at 2017-Dec-11 16:57 UTC. Time now 2017-Dec-12 12:33 UTC.
Position N 50°05' W 125°18'.

Type: Tug. MMSI: 316016916.

Date/timePositionNaut miles runAvg speedWind from/ knotsBaromVisibWave heightAir tempDewpointWater temp
2017-Dec-11 16:57N 50°05' W 125°18'0 0.0
2017-Dec-11 16:27N 50°05' W 125°18'0 0.1
2017-Dec-11 15:58N 50°05' W 125°18'0 0.0
2017-Dec-11 15:28N 50°05' W 125°18'0 0.0
2017-Dec-11 14:58N 50°05' W 125°18'0 0.0
2017-Dec-11 14:28N 50°05' W 125°18'0 0.0
2017-Dec-11 13:58N 50°05' W 125°18'0 0.0
2017-Dec-11 13:28N 50°05' W 125°18'0 0.0
2017-Dec-11 12:58N 50°05' W 125°18'0 0.0
2017-Dec-11 12:28N 50°05' W 125°18'0 0.0
2017-Dec-11 11:58N 50°05' W 125°18'0 0.0
2017-Dec-11 11:28N 50°05' W 125°18'0 0.0
2017-Dec-11 10:58N 50°05' W 125°18'0 0.0
2017-Dec-11 10:28N 50°05' W 125°18'0 0.0
2017-Dec-11 09:58N 50°05' W 125°18'0 0.0
2017-Dec-11 09:28N 50°05' W 125°18'0 0.0
2017-Dec-11 08:58N 50°05' W 125°18'0 0.0
2017-Dec-11 08:28N 50°05' W 125°18'0 0.0
2017-Dec-11 07:58N 50°05' W 125°18'0 0.0
2017-Dec-11 07:29N 50°05' W 125°18'0 0.8
2017-Dec-11 07:01N 50°05' W 125°18'2 5.0
2017-Dec-11 06:30N 50°03' W 125°15'2 4.4
2017-Dec-11 06:00N 50°01' W 125°13'2 4.3
2017-Dec-11 05:30N 49°59' W 125°12'4 6.8
2017-Dec-11 04:54N 49°57' W 125°07'3 7.3
2017-Dec-11 04:30N 49°55' W 125°03'4 7.5
2017-Dec-11 04:00N 49°53' W 124°59'4 7.3
2017-Dec-11 03:30N 49°51' W 124°54'4 7.0
2017-Dec-11 02:57N 49°51' W 124°48'3 7.3
2017-Dec-11 02:29N 49°50' W 124°43'4 7.3
2017-Dec-11 02:00N 49°49' W 124°37'6 7.3
2017-Dec-11 01:12N 49°47' W 124°29'2 7.1
2017-Dec-11 00:56N 49°46' W 124°27'  
2017-Dec-08 13:54N 49°47' W 124°52'3 7.1
2017-Dec-08 13:30N 49°49' W 124°55'4 6.8
2017-Dec-08 12:57N 49°51' W 124°59'4 7.1
2017-Dec-08 12:21N 49°54' W 125°04'4 7.4
2017-Dec-08 11:48N 49°57' W 125°09'6 9.8
2017-Dec-08 11:09N 50°02' W 125°14'3 9.8
2017-Dec-08 10:50N 50°05' W 125°16'3 7.6
2017-Dec-08 10:30N 50°07' W 125°19'3 6.6
2017-Dec-08 10:00N 50°10' W 125°21'  
2017-Dec-04 01:10N 50°51' W 127°21'1 7.3
2017-Dec-04 00:59N 50°52' W 127°22'3 6.5
2017-Dec-04 00:30N 50°55' W 127°25'3 5.8
2017-Dec-04 00:00N 50°57' W 127°28'3 6.6
2017-Dec-03 23:30N 50°59' W 127°32'3 6.1
2017-Dec-03 23:00N 51°02' W 127°32'4 7.7
2017-Dec-03 22:28N 51°06' W 127°31'1 2.2
2017-Dec-03 21:59N 51°06' W 127°29'3 6.1
2017-Dec-03 21:28N 51°04' W 127°25'16 0.8
2017-Dec-03 00:52N 51°04' W 126°59'3 7.9
2017-Dec-03 00:28N 51°03' W 127°04'4 7.6
2017-Dec-02 23:55N 51°03' W 127°11'3 7.3
2017-Dec-02 23:30N 51°03' W 127°16'3 6.6
2017-Dec-02 23:00N 51°02' W 127°21'3 6.6
2017-Dec-02 22:30N 51°04' W 127°25'4 7.1
2017-Dec-02 22:00N 51°06' W 127°30'4 7.5
2017-Dec-02 21:28N 51°02' W 127°31'3 6.1
2017-Dec-02 20:59N 51°01' W 127°36'4 7.1
2017-Dec-02 20:24N 51°04' W 127°40'4 7.0
2017-Dec-02 19:51N 51°06' W 127°45'2 6.7
2017-Dec-02 19:29N 51°08' W 127°48'7 0.3
2017-Dec-01 22:36N 51°03' W 127°39'110.8
2017-Dec-01 22:29N 51°02' W 127°38'510.9
2017-Dec-01 22:00N 50°58' W 127°32'611.4
2017-Dec-01 21:30N 50°55' W 127°25'510.8
2017-Dec-01 21:00N 50°52' W 127°18'  

Dump ship's entire track history